createdAt,value
2018-12-02T00:01:36.489Z,74.90
2018-12-02T00:04:07.975Z,75.21
2018-12-02T00:06:38.798Z,75.22
2018-12-02T00:09:09.559Z,75.23
2018-12-02T00:11:40.280Z,75.33
2018-12-02T00:14:10.991Z,75.05
2018-12-02T00:16:41.665Z,75.17
2018-12-02T00:19:12.282Z,75.29
2018-12-02T00:21:42.929Z,75.13
2018-12-02T00:24:13.603Z,75.42
2018-12-02T00:26:44.312Z,75.20
2018-12-02T00:29:15.002Z,75.43
2018-12-02T00:31:45.825Z,75.62
2018-12-02T00:34:16.489Z,75.98
2018-12-02T00:36:47.263Z,75.94
2018-12-02T00:39:17.953Z,75.95
2018-12-02T00:41:48.878Z,75.92
2018-12-02T00:44:19.673Z,76.29
2018-12-02T00:46:50.586Z,76.25
2018-12-02T00:49:21.314Z,76.46
2018-12-02T00:51:52.094Z,76.79
2018-12-02T00:54:22.855Z,77.17
2018-12-02T00:56:53.483Z,77.53
2018-12-02T00:59:24.193Z,77.66
2018-12-02T01:01:54.843Z,77.89
2018-12-02T01:04:25.569Z,78.16
2018-12-02T01:06:56.344Z,78.40
2018-12-02T01:09:26.892Z,78.51
2018-12-02T01:11:57.554Z,78.96
2018-12-02T01:14:28.167Z,79.44
2018-12-02T01:16:58.909Z,79.44
2018-12-02T01:19:36.323Z,79.35
2018-12-02T01:22:07.232Z,79.63
2018-12-02T01:24:38.112Z,79.69
2018-12-02T01:27:08.887Z,79.52
2018-12-02T01:29:39.579Z,79.60
2018-12-02T01:32:10.378Z,79.41
2018-12-02T01:34:41.009Z,79.48
2018-12-02T01:37:11.739Z,79.29
2018-12-02T01:39:42.361Z,79.42
2018-12-02T01:42:13.196Z,79.03
2018-12-02T01:44:43.919Z,79.11
2018-12-02T01:47:14.572Z,79.07
2018-12-02T01:49:45.278Z,78.98
2018-12-02T01:52:15.965Z,78.81
2018-12-02T01:54:46.670Z,78.75
2018-12-02T01:57:17.279Z,78.80
2018-12-02T01:59:47.954Z,78.60
2018-12-02T02:02:18.669Z,78.55
2018-12-02T02:04:49.311Z,78.42
2018-12-02T02:07:19.963Z,78.36
2018-12-02T02:09:50.648Z,78.62
2018-12-02T02:12:21.462Z,78.44
2018-12-02T02:14:52.168Z,78.60
2018-12-02T02:17:22.867Z,78.70
2018-12-02T02:19:53.527Z,78.89
2018-12-02T02:22:24.273Z,78.93
2018-12-02T02:24:55.063Z,78.69
2018-12-02T02:27:25.717Z,78.85
2018-12-02T02:29:56.351Z,79.34
2018-12-02T02:32:27.108Z,79.36
2018-12-02T02:34:57.845Z,79.67
2018-12-02T02:37:28.470Z,79.29
2018-12-02T02:39:59.105Z,79.37
2018-12-02T02:42:29.836Z,79.56
2018-12-02T02:45:00.481Z,79.61
2018-12-02T02:47:31.236Z,79.79
2018-12-02T02:50:01.875Z,79.91
2018-12-02T02:52:32.552Z,79.44
2018-12-02T02:55:03.209Z,79.82
2018-12-02T02:57:33.891Z,79.71
2018-12-02T03:00:08.702Z,79.61
2018-12-02T03:02:39.529Z,79.90
2018-12-02T03:05:11.841Z,80.27
2018-12-02T03:07:42.621Z,80.29
2018-12-02T03:10:20.802Z,80.29
2018-12-02T03:12:54.415Z,80.28
2018-12-02T03:15:25.432Z,80.35
2018-12-02T03:17:56.219Z,80.27
2018-12-02T03:20:26.948Z,80.08
2018-12-02T03:22:57.731Z,79.88
2018-12-02T03:25:28.557Z,80.22
2018-12-02T03:27:59.270Z,80.81
2018-12-02T03:30:29.998Z,81.35
2018-12-02T03:33:00.684Z,81.69
2018-12-02T03:35:31.430Z,82.39
2018-12-02T03:38:02.192Z,82.60
2018-12-02T03:40:32.975Z,83.02
2018-12-02T03:43:03.657Z,84.12
2018-12-02T03:45:34.376Z,84.44
2018-12-02T03:48:05.105Z,85.59
2018-12-02T03:50:35.843Z,86.19
2018-12-02T03:53:06.655Z,86.81
2018-12-02T03:55:37.412Z,87.87
2018-12-02T03:58:08.111Z,87.04
2018-12-02T04:00:38.845Z,87.61
2018-12-02T04:03:09.569Z,88.10
2018-12-02T04:05:40.220Z,89.00
2018-12-02T04:08:10.918Z,89.19
2018-12-02T04:10:41.703Z,89.90
2018-12-02T04:13:12.327Z,90.36
2018-12-02T04:18:44.234Z,90.86
2018-12-02T04:21:14.961Z,91.12
2018-12-02T04:23:45.592Z,91.06
2018-12-02T04:26:16.370Z,91.35
2018-12-02T04:28:47.087Z,91.03
2018-12-02T04:31:17.813Z,91.45
2018-12-02T04:33:48.440Z,91.44
2018-12-02T04:36:19.218Z,90.90
2018-12-02T04:38:49.908Z,91.49
2018-12-02T04:41:21.006Z,91.58
2018-12-02T04:43:51.622Z,91.71
2018-12-02T04:46:22.237Z,91.88
2018-12-02T04:48:52.973Z,91.73
2018-12-02T04:51:25.177Z,91.90
2018-12-02T04:53:55.333Z,92.11
2018-12-02T04:56:25.979Z,91.44
2018-12-02T04:58:56.597Z,92.30
2018-12-02T05:01:27.334Z,91.91
2018-12-02T05:03:57.979Z,92.11
2018-12-02T05:06:28.646Z,92.01
2018-12-02T05:08:59.307Z,92.55
2018-12-02T05:11:29.941Z,91.94
2018-12-02T05:14:00.660Z,91.74
2018-12-02T05:16:31.357Z,91.87
2018-12-02T05:19:01.986Z,92.10
2018-12-02T05:21:32.624Z,91.95
2018-12-02T05:24:03.309Z,91.80
2018-12-02T05:26:33.928Z,92.11
2018-12-02T05:29:04.571Z,92.17
2018-12-02T05:31:35.234Z,92.06
2018-12-02T05:34:20.608Z,92.12
2018-12-02T05:36:51.233Z,91.69
2018-12-02T05:39:21.874Z,91.95
2018-12-02T05:41:57.641Z,92.25
2018-12-02T05:44:28.317Z,92.27
2018-12-02T05:46:58.933Z,92.15
2018-12-02T05:49:29.541Z,91.37
2018-12-02T05:52:00.127Z,91.99
2018-12-02T05:54:30.792Z,92.40
2018-12-02T05:57:01.450Z,92.14
2018-12-02T05:59:32.090Z,91.52
2018-12-02T06:02:02.718Z,92.37
2018-12-02T06:04:33.334Z,92.59
2018-12-02T06:07:03.937Z,93.52
2018-12-02T06:09:34.606Z,93.51
2018-12-02T06:12:05.338Z,93.42
2018-12-02T06:14:36.049Z,93.17
2018-12-02T06:17:07.183Z,93.47
2018-12-02T06:19:37.868Z,94.09
2018-12-02T06:22:08.537Z,93.73
2018-12-02T06:24:39.153Z,93.51
2018-12-02T06:27:09.798Z,93.85
2018-12-02T06:29:40.454Z,93.04
2018-12-02T06:32:11.067Z,93.16
2018-12-02T06:34:41.668Z,93.91
2018-12-02T06:37:12.327Z,94.68
2018-12-02T06:39:42.963Z,94.98
2018-12-02T06:42:13.699Z,95.47
2018-12-02T06:44:44.356Z,95.14
2018-12-02T06:47:15.020Z,94.04
2018-12-02T06:49:45.679Z,94.19
2018-12-02T06:52:16.351Z,94.08
2018-12-02T06:54:54.564Z,94.39
2018-12-02T06:57:30.481Z,94.82
2018-12-02T07:02:22.007Z,95.28
2018-12-02T07:04:52.586Z,96.87
2018-12-02T07:07:23.357Z,97.64
2018-12-02T07:09:54.035Z,98.11
2018-12-02T07:12:24.658Z,97.83
2018-12-02T07:14:55.256Z,98.02
2018-12-02T07:17:28.927Z,97.93
2018-12-02T07:20:07.542Z,98.07
2018-12-02T07:22:41.975Z,98.40
2018-12-02T07:25:21.894Z,99.00
2018-12-02T07:27:52.557Z,98.40
2018-12-02T07:30:25.063Z,98.49
2018-12-02T07:32:54.871Z,98.96
2018-12-02T07:35:25.543Z,98.33
2018-12-02T07:38:02.010Z,98.31
2018-12-02T07:40:36.435Z,98.11
2018-12-02T07:43:09.687Z,98.05
2018-12-02T07:45:40.490Z,98.10
2018-12-02T07:48:11.233Z,98.53
2018-12-02T07:50:41.869Z,98.32
2018-12-02T07:53:12.518Z,98.87
2018-12-02T07:55:43.150Z,98.34
2018-12-02T07:58:16.215Z,97.96
2018-12-02T08:00:47.040Z,98.17
2018-12-02T08:03:17.786Z,98.39
2018-12-02T08:05:48.466Z,98.03
2018-12-02T08:08:19.150Z,97.49
2018-12-02T08:10:49.795Z,97.45
2018-12-02T08:13:20.399Z,97.66
2018-12-02T08:15:51.053Z,97.20
2018-12-02T08:18:21.778Z,97.42
2018-12-02T08:20:52.464Z,97.50
2018-12-02T08:23:23.058Z,97.50
2018-12-02T08:25:53.861Z,97.79
2018-12-02T08:28:25.026Z,97.88
2018-12-02T08:30:56.007Z,97.76
2018-12-02T08:33:27.005Z,98.06
2018-12-02T08:35:58.016Z,98.27
2018-12-02T08:38:28.664Z,98.26
2018-12-02T08:40:59.308Z,98.83
2018-12-02T08:43:29.947Z,98.20
2018-12-02T08:46:00.638Z,98.42
2018-12-02T08:48:31.535Z,98.26
2018-12-02T08:51:02.221Z,98.49
2018-12-02T08:53:32.935Z,98.79
2018-12-02T08:56:03.621Z,98.34
2018-12-02T08:58:34.274Z,99.24
2018-12-02T09:01:04.980Z,98.61
2018-12-02T09:03:35.612Z,98.11
2018-12-02T09:06:06.326Z,98.09
2018-12-02T09:08:36.997Z,97.85
2018-12-02T09:11:08.576Z,97.41
2018-12-02T09:13:39.282Z,97.67
2018-12-02T09:16:09.951Z,97.72
2018-12-02T09:18:40.640Z,97.85
2018-12-02T09:21:11.345Z,97.28
2018-12-02T09:23:47.216Z,97.41
2018-12-02T09:26:12.718Z,97.60
2018-12-02T09:28:43.431Z,97.78
2018-12-02T09:31:14.189Z,97.74
2018-12-02T09:33:44.891Z,98.07
2018-12-02T09:36:15.605Z,97.65
2018-12-02T09:38:46.296Z,98.23
2018-12-02T09:41:16.954Z,98.70
2018-12-02T09:43:47.697Z,98.61
2018-12-02T09:46:18.397Z,98.98
2018-12-02T09:48:49.027Z,98.71
2018-12-02T09:51:19.738Z,99.28
2018-12-02T09:53:50.414Z,99.81
2018-12-02T09:56:21.072Z,100.00
2018-12-02T09:58:52.050Z,100.00
2018-12-02T10:01:22.716Z,100.00
2018-12-02T10:03:53.373Z,99.91
2018-12-02T10:06:24.053Z,100.00
2018-12-02T10:08:54.696Z,100.00
2018-12-02T10:11:25.412Z,100.00
2018-12-02T10:13:56.255Z,100.00
2018-12-02T10:16:26.913Z,100.00
2018-12-02T10:18:57.556Z,100.00
2018-12-02T10:21:28.201Z,100.00
2018-12-02T10:23:58.918Z,100.00
2018-12-02T10:26:29.611Z,100.00
2018-12-02T10:29:00.347Z,100.00
2018-12-02T10:31:31.005Z,100.00
2018-12-02T10:34:01.655Z,100.00
2018-12-02T10:36:32.366Z,100.00
2018-12-02T10:39:03.034Z,100.00
2018-12-02T10:41:33.696Z,100.00
2018-12-02T10:44:04.439Z,100.00
2018-12-02T10:46:35.148Z,100.00
2018-12-02T10:49:06.097Z,100.00
2018-12-02T10:51:36.789Z,100.00
2018-12-02T10:54:07.520Z,100.00
2018-12-02T10:56:38.146Z,100.00
2018-12-02T10:59:08.828Z,100.00
2018-12-02T11:01:43.013Z,100.00
2018-12-02T11:04:13.693Z,100.00
2018-12-02T11:06:44.337Z,100.00
2018-12-02T11:09:15.029Z,100.00
2018-12-02T11:11:45.899Z,100.00
2018-12-02T11:14:16.560Z,100.00
2018-12-02T11:16:47.250Z,100.00
2018-12-02T11:19:17.903Z,100.00
2018-12-02T11:21:48.619Z,100.00
2018-12-02T11:24:19.308Z,100.00
2018-12-02T11:26:50.031Z,100.00
2018-12-02T11:29:23.571Z,100.00
2018-12-02T11:31:54.330Z,100.00
2018-12-02T11:34:25.007Z,100.00
2018-12-02T11:36:55.679Z,100.00
2018-12-02T11:39:26.386Z,100.00
2018-12-02T11:41:57.011Z,100.00
2018-12-02T11:44:27.640Z,100.00
2018-12-02T11:46:58.280Z,100.00
2018-12-02T11:49:29.094Z,100.00
2018-12-02T11:51:59.693Z,100.00
2018-12-02T11:54:30.411Z,100.00
2018-12-02T11:57:01.089Z,100.00
2018-12-02T11:59:31.802Z,100.00
2018-12-02T12:02:07.537Z,100.00
2018-12-02T12:04:33.189Z,100.00
2018-12-02T12:07:03.974Z,100.00
2018-12-02T12:09:34.638Z,100.00
2018-12-02T12:12:05.243Z,100.00
2018-12-02T12:14:36.146Z,100.00
2018-12-02T12:17:07.645Z,100.00
2018-12-02T12:19:38.404Z,100.00
2018-12-02T12:22:09.124Z,100.00
2018-12-02T12:24:39.893Z,100.00
2018-12-02T12:27:10.583Z,100.00
2018-12-02T12:29:41.335Z,100.00
2018-12-02T12:32:12.000Z,100.00
2018-12-02T12:34:42.739Z,100.00
2018-12-02T12:37:13.401Z,100.00
2018-12-02T12:39:44.178Z,100.00
2018-12-02T12:42:14.804Z,100.00
2018-12-02T12:44:45.643Z,100.00
2018-12-02T12:47:16.418Z,100.00
2018-12-02T12:49:47.132Z,100.00
2018-12-02T12:52:17.771Z,100.00
2018-12-02T12:54:48.464Z,100.00
2018-12-02T12:57:19.133Z,100.00
2018-12-02T13:00:22.845Z,100.00
2018-12-02T13:02:53.913Z,99.83
2018-12-02T13:05:26.875Z,99.84
2018-12-02T13:07:57.653Z,100.00
2018-12-02T13:10:28.390Z,99.43
2018-12-02T13:12:59.169Z,99.31
2018-12-02T13:15:29.966Z,98.16
2018-12-02T13:18:02.371Z,98.29
2018-12-02T13:20:38.689Z,98.55
2018-12-02T13:23:09.492Z,99.13
2018-12-02T13:25:40.255Z,99.42
2018-12-02T13:28:11.054Z,98.43
2018-12-02T13:30:41.890Z,98.51
2018-12-02T13:33:12.576Z,98.34
2018-12-02T13:35:43.370Z,97.79
2018-12-02T13:38:14.039Z,97.89
2018-12-02T13:40:45.290Z,97.27
2018-12-02T13:43:19.220Z,97.76
2018-12-02T13:45:51.028Z,97.49
2018-12-02T13:48:21.756Z,97.21
2018-12-02T13:50:52.398Z,97.02
2018-12-02T13:53:23.075Z,96.92
2018-12-02T13:55:53.767Z,97.22
2018-12-02T13:58:24.462Z,97.36
2018-12-02T14:00:55.170Z,97.05
2018-12-02T14:03:25.903Z,97.40
2018-12-02T14:05:56.598Z,96.77
2018-12-02T14:08:27.494Z,96.51
2018-12-02T14:10:58.208Z,95.64
2018-12-02T14:13:29.909Z,96.51
2018-12-02T14:16:28.631Z,96.35
2018-12-02T14:19:02.814Z,95.93
2018-12-02T14:21:33.645Z,95.73
2018-12-02T14:24:05.258Z,96.49
2018-12-02T14:26:36.154Z,96.37
2018-12-02T14:29:19.675Z,95.97
2018-12-02T14:31:55.438Z,96.10
2018-12-02T14:34:26.117Z,96.84
2018-12-02T14:36:56.761Z,97.04
2018-12-02T14:39:27.471Z,97.69
2018-12-02T14:41:58.174Z,98.08
2018-12-02T14:44:29.694Z,98.31
2018-12-02T14:46:59.660Z,98.29
2018-12-02T14:49:30.513Z,98.35
2018-12-02T14:52:01.227Z,98.24
2018-12-02T14:54:31.879Z,98.66
2018-12-02T14:57:02.559Z,99.20
2018-12-02T14:59:33.198Z,99.27
2018-12-02T15:02:03.899Z,99.65
2018-12-02T15:04:34.548Z,99.80
2018-12-02T15:07:05.682Z,99.26
2018-12-02T15:09:36.438Z,99.29
2018-12-02T15:12:07.408Z,99.99
2018-12-02T15:14:38.113Z,100.00
2018-12-02T15:17:08.834Z,100.00
2018-12-02T15:19:39.498Z,100.00
2018-12-02T15:22:10.242Z,100.00
2018-12-02T15:24:40.894Z,100.00
2018-12-02T15:27:13.167Z,100.00
2018-12-02T15:29:43.849Z,100.00
2018-12-02T15:32:14.531Z,100.00
2018-12-02T15:34:46.152Z,100.00
2018-12-02T15:37:16.918Z,100.00
2018-12-02T15:39:47.606Z,100.00
2018-12-02T15:42:19.458Z,100.00
2018-12-02T15:44:50.180Z,100.00
2018-12-02T15:47:20.961Z,100.00
2018-12-02T15:49:51.577Z,100.00
2018-12-02T15:52:22.255Z,100.00
2018-12-02T15:54:52.875Z,100.00
2018-12-02T15:57:23.527Z,100.00
2018-12-02T15:59:54.190Z,100.00
2018-12-02T16:02:24.807Z,100.00
2018-12-02T16:04:55.502Z,100.00
2018-12-02T16:07:26.115Z,100.00
2018-12-02T16:09:56.766Z,100.00
2018-12-02T16:12:27.454Z,100.00
2018-12-02T16:14:58.176Z,100.00
2018-12-02T16:17:28.994Z,100.00
2018-12-02T16:19:59.674Z,100.00
2018-12-02T16:22:30.334Z,100.00
2018-12-02T16:25:01.077Z,100.00
2018-12-02T16:27:31.866Z,100.00
2018-12-02T16:30:02.767Z,100.00
2018-12-02T16:32:34.128Z,100.00
2018-12-02T16:35:05.420Z,100.00
2018-12-02T16:37:36.610Z,100.00
2018-12-02T16:40:14.023Z,100.00
2018-12-02T16:42:44.666Z,100.00
2018-12-02T16:45:17.898Z,100.00
2018-12-02T16:47:50.474Z,100.00
2018-12-02T16:50:35.126Z,100.00
2018-12-02T16:53:15.210Z,99.87
2018-12-02T16:56:22.404Z,99.14
2018-12-02T16:59:18.934Z,99.76
2018-12-02T17:01:54.197Z,99.06
2018-12-02T17:04:26.096Z,98.78
2018-12-02T17:06:56.841Z,99.63
2018-12-02T17:09:27.513Z,99.16
2018-12-02T17:11:58.287Z,98.87
2018-12-02T17:14:28.979Z,97.75
2018-12-02T17:16:59.692Z,98.21
2018-12-02T17:19:30.518Z,97.98
2018-12-02T17:22:01.224Z,97.57
2018-12-02T17:24:32.185Z,98.10
2018-12-02T17:27:34.575Z,97.67
2018-12-02T17:30:11.695Z,97.98
2018-12-02T17:32:42.460Z,97.62
2018-12-02T17:35:13.160Z,97.65
2018-12-02T17:37:43.897Z,96.61
2018-12-02T17:40:20.989Z,97.10
2018-12-02T17:42:51.734Z,97.82
2018-12-02T17:45:22.505Z,97.96
2018-12-02T17:47:53.231Z,97.50
2018-12-02T17:50:23.916Z,97.63
2018-12-02T17:52:54.638Z,97.27
2018-12-02T17:55:25.276Z,97.20
2018-12-02T17:57:56.297Z,96.91
2018-12-02T18:00:31.028Z,96.79
2018-12-02T18:03:03.724Z,96.19
2018-12-02T18:05:41.022Z,95.77
2018-12-02T18:08:11.788Z,96.18
2018-12-02T18:10:42.761Z,96.23
2018-12-02T18:13:13.521Z,96.23
2018-12-02T18:15:44.656Z,95.25
2018-12-02T18:18:15.375Z,95.16
2018-12-02T18:20:46.081Z,95.21
2018-12-02T18:23:16.802Z,93.52
2018-12-02T18:25:47.551Z,92.78
2018-12-02T18:28:18.383Z,93.58
2018-12-02T18:30:49.268Z,93.15
2018-12-02T18:33:20.034Z,93.44
2018-12-02T18:36:03.406Z,93.02
2018-12-02T18:38:36.876Z,93.29
2018-12-02T18:41:12.573Z,93.76
2018-12-02T18:43:43.244Z,93.85
2018-12-02T18:46:15.975Z,94.46
2018-12-02T18:48:46.681Z,94.09
2018-12-02T18:51:17.352Z,94.19
2018-12-02T18:53:48.011Z,93.34
2018-12-02T18:56:18.710Z,92.85
2018-12-02T18:58:49.378Z,92.68
2018-12-02T19:01:20.198Z,93.30
2018-12-02T19:03:50.874Z,93.58
2018-12-02T19:06:21.697Z,92.77
2018-12-02T19:08:52.409Z,92.62
2018-12-02T19:11:23.253Z,93.35
2018-12-02T19:13:53.976Z,93.18
2018-12-02T19:16:24.700Z,93.42
2018-12-02T19:18:55.400Z,93.41
2018-12-02T19:21:28.811Z,92.90
2018-12-02T19:24:00.478Z,92.35
2018-12-02T19:26:31.283Z,92.05
2018-12-02T19:29:01.997Z,92.10
2018-12-02T19:31:32.727Z,91.39
2018-12-02T19:34:03.545Z,91.60
2018-12-02T19:36:39.332Z,91.20
2018-12-02T19:39:11.930Z,90.50
2018-12-02T19:41:42.702Z,90.19
2018-12-02T19:44:13.410Z,90.57
2018-12-02T19:46:44.974Z,90.68
2018-12-02T19:49:15.627Z,90.06
2018-12-02T19:51:46.416Z,90.13
2018-12-02T19:54:17.066Z,90.37
2018-12-02T19:56:47.834Z,90.52
2018-12-02T19:59:18.505Z,89.30
2018-12-02T20:01:49.330Z,89.32
2018-12-02T20:04:20.019Z,89.44
2018-12-02T20:06:50.730Z,89.07
2018-12-02T20:09:21.596Z,89.28
2018-12-02T20:11:52.369Z,89.16
2018-12-02T20:14:23.215Z,89.26
2018-12-02T20:16:53.921Z,88.99
2018-12-02T20:19:29.946Z,89.04
2018-12-02T20:22:00.677Z,88.89
2018-12-02T20:24:36.667Z,89.69
2018-12-02T20:27:07.502Z,89.28
2018-12-02T20:29:38.255Z,89.69
2018-12-02T20:32:11.150Z,91.04
2018-12-02T20:34:42.000Z,91.66
2018-12-02T20:37:12.743Z,92.72
2018-12-02T20:39:43.418Z,92.50
2018-12-02T20:42:14.197Z,93.52
2018-12-02T20:44:45.053Z,93.25
2018-12-02T20:47:15.961Z,93.42
2018-12-02T20:49:47.107Z,93.95
2018-12-02T20:52:17.804Z,94.34
2018-12-02T20:54:48.450Z,94.76
2018-12-02T20:57:19.142Z,94.82
2018-12-02T20:59:49.845Z,95.78
2018-12-02T21:02:20.490Z,96.43
2018-12-02T21:04:51.250Z,96.80
2018-12-02T21:07:22.024Z,97.14
2018-12-02T21:09:52.771Z,96.81
2018-12-02T21:12:23.532Z,97.47
2018-12-02T21:14:54.239Z,97.00
2018-12-02T21:17:24.917Z,96.83
2018-12-02T21:19:55.664Z,96.70
2018-12-02T21:22:26.338Z,96.59
2018-12-02T21:24:56.956Z,95.90
2018-12-02T21:27:27.610Z,96.42
2018-12-02T21:29:58.502Z,96.46
2018-12-02T21:32:29.199Z,96.77
2018-12-02T21:34:59.959Z,96.78
2018-12-02T21:37:30.682Z,96.72
2018-12-02T21:40:01.370Z,96.87
2018-12-02T21:42:32.023Z,97.06
2018-12-02T21:45:02.681Z,97.23
2018-12-02T21:47:33.380Z,97.28
2018-12-02T21:50:06.424Z,97.42
2018-12-02T21:52:37.148Z,97.31
2018-12-02T21:55:09.149Z,97.19
2018-12-02T21:57:39.845Z,97.71
2018-12-02T22:01:18.721Z,97.33
2018-12-02T22:03:49.419Z,97.25
2018-12-02T22:06:20.119Z,97.80
2018-12-02T22:08:50.806Z,97.37
2018-12-02T22:11:21.532Z,97.34
2018-12-02T22:13:52.174Z,96.92
2018-12-02T22:16:22.835Z,96.85
2018-12-02T22:18:53.496Z,96.46
2018-12-02T22:21:24.182Z,96.80
2018-12-02T22:23:54.867Z,96.67
2018-12-02T22:26:25.551Z,97.17
2018-12-02T22:28:57.377Z,98.27
2018-12-02T22:31:26.921Z,98.99
2018-12-02T22:33:57.560Z,98.97
2018-12-02T22:36:28.247Z,99.22
2018-12-02T22:38:58.899Z,99.61
2018-12-02T22:41:29.528Z,99.73
2018-12-02T22:44:00.191Z,99.85
2018-12-02T22:46:30.768Z,100.00
2018-12-02T22:49:01.425Z,100.00
2018-12-02T22:51:32.088Z,100.00
2018-12-02T22:54:02.738Z,100.00
2018-12-02T22:56:33.406Z,100.00
2018-12-02T22:59:04.086Z,100.00
2018-12-02T23:01:39.957Z,100.00
2018-12-02T23:04:10.626Z,100.00
2018-12-02T23:06:41.319Z,100.00
2018-12-02T23:09:12.314Z,99.87
2018-12-02T23:11:42.964Z,100.00
2018-12-02T23:14:13.688Z,100.00
2018-12-02T23:16:59.899Z,100.00
2018-12-02T23:19:30.535Z,100.00
2018-12-02T23:22:01.283Z,100.00
2018-12-02T23:24:31.959Z,100.00
2018-12-02T23:27:02.590Z,100.00
2018-12-02T23:29:33.940Z,100.00
2018-12-02T23:32:05.124Z,100.00
2018-12-02T23:34:35.808Z,100.00
2018-12-02T23:37:06.602Z,99.81
2018-12-02T23:39:38.615Z,100.00
2018-12-02T23:42:07.992Z,100.00
2018-12-02T23:44:38.748Z,99.87
2018-12-02T23:47:09.394Z,99.67
2018-12-02T23:49:39.986Z,99.77
2018-12-02T23:52:10.648Z,99.87
2018-12-02T23:54:41.359Z,100.00
2018-12-02T23:57:12.029Z,100.00
2018-12-02T23:59:42.741Z,100.00
